Time;durP1;ratioP1;P1;durP2;ratioP2;P2;SDS_P1;SDS_P2;PMS_P1;PMS_P2;Temp;Humidity;BMP_temperature;BMP_pressure;BME280_temperature;BME280_humidity;BME280_pressure;Samples;Min_cycle;Max_cycle;Signal;HPM_P1;HPM_P2
2022/05/29 00:01:50;;;;;;;4.93;1.45;;;10.60;99.90;;;;;;4165307;28;20176;-88
2022/05/29 00:03:51;;;;;;;11.50;1.70;;;10.70;99.90;;;;;;4165112;28;20197;-87
2022/05/29 00:05:52;;;;;;;7.43;1.57;;;10.70;99.90;;;;;;4148902;28;20177;-87
2022/05/29 00:07:52;;;;;;;5.80;1.33;;;10.70;99.90;;;;;;4164897;28;20203;-89
2022/05/29 00:09:53;;;;;;;8.77;1.70;;;10.60;99.90;;;;;;4164855;28;20180;-87
2022/05/29 00:11:54;;;;;;;6.93;1.53;;;10.60;99.90;;;;;;4165842;28;20199;-88
2022/05/29 00:14:00;;;;;;;8.30;1.70;;;10.60;99.90;;;;;;4164920;28;20680;-88
2022/05/29 00:16:01;;;;;;;5.77;1.43;;;10.50;99.90;;;;;;4165181;28;20168;-88
2022/05/29 00:18:01;;;;;;;8.97;1.70;;;10.50;99.90;;;;;;4164879;28;20203;-87
2022/05/29 00:20:03;;;;;;;10.97;1.60;;;10.50;99.90;;;;;;4148298;28;20185;-87
2022/05/29 00:22:05;;;;;;;8.00;1.63;;;10.50;99.90;;;;;;4164587;28;20230;-87
2022/05/29 00:24:07;;;;;;;5.50;1.47;;;10.50;99.90;;;;;;4165076;28;20703;-87
2022/05/29 00:26:08;;;;;;;5.90;1.60;;;10.60;99.90;;;;;;4148904;28;20203;-87
2022/05/29 00:28:09;;;;;;;4.73;1.27;;;10.60;99.90;;;;;;4148632;28;20193;-87
2022/05/29 00:30:13;;;;;;;8.15;1.65;;;10.70;99.90;;;;;;4148556;28;20311;-87
2022/05/29 00:32:14;;;;;;;11.90;1.70;;;10.70;99.90;;;;;;4148554;28;20172;-87
2022/05/29 00:34:15;;;;;;;10.63;1.70;;;10.70;99.90;;;;;;4164865;28;20176;-87
2022/05/29 00:36:16;;;;;;;9.07;1.80;;;10.70;99.90;;;;;;4164900;28;20219;-87
2022/05/29 00:38:17;;;;;;;4.97;1.27;;;10.70;99.90;;;;;;4164878;28;20200;-87
2022/05/29 00:40:27;;;;;;;6.88;1.42;;;10.70;99.90;;;;;;4164141;28;20183;-87
2022/05/29 00:42:28;;;;;;;6.13;1.63;;;10.70;99.90;;;;;;4164832;28;20171;-87
2022/05/29 00:44:31;;;;;;;7.15;1.40;;;10.80;99.90;;;;;;4148530;28;20649;-87
2022/05/29 00:46:33;;;;;;;9.82;1.38;;;10.80;99.90;;;;;;4148172;28;20180;-87
2022/05/29 00:48:34;;;;;;;7.57;1.40;;;10.80;99.90;;;;;;4164627;28;20172;-86
2022/05/29 00:50:36;;;;;;;8.47;1.40;;;10.90;99.90;;;;;;4164642;28;20255;-88
2022/05/29 00:52:38;;;;;;;6.90;1.40;;;10.90;99.90;;;;;;4164774;28;20222;-88
2022/05/29 00:55:00;;;;;;;7.10;1.43;;;10.90;99.90;;;;;;4164866;28;20168;-88
2022/05/29 00:57:02;;;;;;;5.47;1.20;;;11.00;99.90;;;;;;4164480;28;20235;-87
2022/05/29 00:59:04;;;;;;;4.63;1.10;;;11.00;99.90;;;;;;4164531;28;20180;-87
2022/05/29 01:01:04;;;;;;;8.53;1.67;;;11.10;99.90;;;;;;4148164;28;20172;-87
2022/05/29 01:03:06;;;;;;;5.13;1.30;;;11.10;99.90;;;;;;4148102;28;20196;-87
2022/05/29 01:05:09;;;;;;;3.87;1.20;;;11.20;99.90;;;;;;4164224;28;20734;-87
2022/05/29 01:07:13;;;;;;;7.13;1.23;;;11.20;99.90;;;;;;4163982;28;20188;-87
2022/05/29 01:09:16;;;;;;;5.75;1.27;;;11.30;99.90;;;;;;4164474;28;20322;-87
2022/05/29 01:11:59;;;;;;;8.57;1.17;;;11.20;99.90;;;;;;4164551;28;20267;-87
2022/05/29 01:14:20;;;;;;;10.70;1.70;;;11.30;99.90;;;;;;4147589;28;20181;-87
2022/05/29 01:16:53;;;;;;;7.15;1.60;;;11.30;99.90;;;;;;4164405;28;20239;-87
2022/05/29 01:19:24;;;;;;;4.10;1.07;;;11.20;99.90;;;;;;4115801;28;20196;-87
2022/05/29 01:21:56;;;;;;;8.82;1.42;;;11.20;99.90;;;;;;4164949;28;20191;-87
2022/05/29 01:24:28;;;;;;;9.45;1.23;;;11.20;99.90;;;;;;4148058;28;20226;-87
2022/05/29 01:27:06;;;;;;;6.00;1.20;;;11.10;99.90;;;;;;4164383;28;20180;-87
2022/05/29 01:29:11;;;;;;;5.85;1.70;;;11.00;99.90;;;;;;4164507;28;20180;-87
2022/05/29 01:31:22;;;;;;;5.03;1.23;;;10.90;99.90;;;;;;4164439;28;20200;-87
2022/05/29 01:33:38;;;;;;;5.90;1.63;;;10.80;99.90;;;;;;4147957;28;20319;-87
2022/05/29 01:35:51;;;;;;;7.00;1.30;;;10.70;99.90;;;;;;4164389;28;20176;-87
2022/05/29 01:38:10;;;;;;;5.07;1.57;;;10.60;99.90;;;;;;4164368;28;20199;-91
2022/05/29 01:40:24;;;;;;;5.90;1.30;;;10.40;99.90;;;;;;4164329;28;20215;-87
2022/05/29 01:42:46;;;;;;;9.90;1.70;;;10.50;99.90;;;;;;4164242;28;20176;-87
2022/05/29 01:45:07;;;;;;;7.97;2.03;;;10.40;99.90;;;;;;4165219;28;20204;-87
2022/05/29 01:47:39;;;;;;;7.03;1.47;;;10.30;99.90;;;;;;4164187;28;20201;-87
2022/05/29 01:49:45;;;;;;;6.40;1.40;;;10.30;99.90;;;;;;4164512;28;20168;-88
2022/05/29 01:52:00;;;;;;;4.40;1.17;;;10.30;99.90;;;;;;4166571;28;20628;-88
2022/05/29 01:54:24;;;;;;;4.65;1.27;;;10.30;99.90;;;;;;4167317;28;20200;-87
2022/05/29 01:56:30;;;;;;;9.97;1.40;;;10.20;99.90;;;;;;4183637;28;20209;-87
2022/05/29 01:58:38;;;;;;;5.53;1.20;;;10.20;99.90;;;;;;4167135;28;20168;-87
2022/05/29 02:00:39;;;;;;;6.77;1.80;;;10.20;99.90;;;;;;4167060;28;20172;-87
2022/05/29 02:02:43;;;;;;;8.03;1.50;;;10.20;99.90;;;;;;4167170;28;20645;-86
2022/05/29 02:04:49;;;;;;;7.90;1.20;;;10.20;99.90;;;;;;4183481;28;20207;-87
2022/05/29 02:09:11;;;;;;;5.50;1.90;;;10.20;99.90;;;;;;4166788;28;20184;-87
2022/05/29 02:11:24;;;;;;;5.10;1.40;;;10.20;99.90;;;;;;4167800;28;20531;-88
2022/05/29 02:13:32;;;;;;;7.77;1.50;;;10.20;99.90;;;;;;4166719;28;20660;-88
2022/05/29 02:15:38;;;;;;;5.40;1.20;;;10.20;99.90;;;;;;4150256;28;20203;-87
2022/05/29 02:17:42;;;;;;;7.33;1.33;;;10.20;99.90;;;;;;4182822;28;20250;-87
2022/05/29 02:19:49;;;;;;;6.23;1.33;;;10.30;99.90;;;;;;4183343;28;20182;-88
2022/05/29 02:22:07;;;;;;;7.03;1.40;;;10.20;99.90;;;;;;4166697;28;20183;-87
2022/05/29 02:24:14;;;;;;;8.30;1.40;;;10.20;99.90;;;;;;4166590;28;20251;-88
2022/05/29 02:26:21;;;;;;;11.27;1.53;;;10.20;99.90;;;;;;4166717;28;20264;-87
2022/05/29 02:28:31;;;;;;;4.57;1.13;;;10.20;99.90;;;;;;4166548;28;20192;-88
2022/05/29 02:30:47;;;;;;;6.33;1.27;;;10.40;99.90;;;;;;4166652;28;20176;-88
2022/05/29 02:33:14;;;;;;;5.97;1.37;;;10.40;99.90;;;;;;4150069;28;20220;-88
2022/05/29 02:35:29;;;;;;;5.63;1.50;;;10.40;99.90;;;;;;4166595;28;20180;-87
2022/05/29 02:37:29;;;;;;;6.43;1.70;;;10.50;99.90;;;;;;4166516;28;20215;-88
2022/05/29 02:40:08;;;;;;;7.20;1.63;;;10.70;99.90;;;;;;4150115;28;20621;-87
2022/05/29 02:42:46;;;;;;;7.70;1.87;;;10.80;99.90;;;;;;4166667;28;20172;-88
2022/05/29 02:44:49;;;;;;;6.13;1.70;;;10.70;99.90;;;;;;4166333;28;20208;-88
2022/05/29 02:47:16;;;;;;;6.43;1.57;;;10.60;99.90;;;;;;4166444;28;20196;-88
2022/05/29 02:49:30;;;;;;;8.13;1.77;;;10.70;99.90;;;;;;4163466;28;20191;-88
2022/05/29 02:51:57;;;;;;;5.00;1.40;;;10.70;99.90;;;;;;4166500;28;20659;-86
2022/05/29 02:53:58;;;;;;;4.07;1.70;;;10.70;99.90;;;;;;4166295;28;20200;-88
2022/05/29 02:56:03;;;;;;;4.50;1.40;;;10.60;99.90;;;;;;4149996;28;20176;-88
2022/05/29 02:58:08;;;;;;;8.50;1.40;;;10.60;99.90;;;;;;4166015;28;20188;-88
2022/05/29 03:00:13;;;;;;;8.97;1.67;;;10.70;99.90;;;;;;4149640;28;20177;-88
2022/05/29 03:02:38;;;;;;;4.57;1.63;;;10.70;99.90;;;;;;4165527;28;20175;-87
2022/05/29 03:04:50;;;;;;;5.87;1.50;;;10.80;99.90;;;;;;4166087;28;20219;-87
2022/05/29 03:07:18;;;;;;;5.78;1.60;;;10.70;99.90;;;;;;4166124;28;20294;-88
2022/05/29 03:09:25;;;;;;;7.57;1.83;;;10.80;99.90;;;;;;4182430;28;20178;-87
2022/05/29 03:11:34;;;;;;;6.83;1.70;;;10.80;99.90;;;;;;4149723;28;20200;-88
2022/05/29 03:14:01;;;;;;;6.47;1.80;;;10.80;99.90;;;;;;4182232;28;20662;-87
2022/05/29 03:16:05;;;;;;;5.17;1.60;;;10.80;99.90;;;;;;4165779;28;20660;-88
2022/05/29 03:18:39;;;;;;;6.30;1.70;;;10.80;99.90;;;;;;4165926;28;20267;-88
2022/05/29 03:20:49;;;;;;;8.33;2.30;;;10.80;99.90;;;;;;4165707;28;20180;-88
2022/05/29 03:23:05;;;;;;;3.90;1.93;;;10.80;99.90;;;;;;4165847;28;20172;-87
2022/05/29 03:25:19;;;;;;;6.63;2.03;;;10.80;99.90;;;;;;4182121;28;20675;-88
2022/05/29 03:27:26;;;;;;;8.60;2.33;;;10.80;99.90;;;;;;4165424;28;20188;-87
2022/05/29 03:30:00;;;;;;;8.73;2.77;;;10.70;99.90;;;;;;4165777;28;20635;-88
2022/05/29 03:32:03;;;;;;;6.07;2.43;;;10.70;99.90;;;;;;4130149;28;20671;-87
2022/05/29 03:34:04;;;;;;;11.90;2.20;;;10.60;99.90;;;;;;4165679;28;20176;-88
2022/05/29 03:36:09;;;;;;;9.37;2.47;;;10.70;99.90;;;;;;4149048;28;20342;-87
2022/05/29 03:38:09;;;;;;;7.70;2.30;;;10.80;99.90;;;;;;4165481;28;20313;-88
2022/05/29 03:40:11;;;;;;;12.80;2.77;;;10.80;99.90;;;;;;4165328;28;20173;-87
2022/05/29 03:42:12;;;;;;;13.03;2.80;;;10.80;99.90;;;;;;4165390;28;20246;-89
2022/05/29 03:44:15;;;;;;;9.50;2.27;;;10.90;99.90;;;;;;4166487;28;20765;-88
2022/05/29 03:46:16;;;;;;;7.50;2.50;;;10.80;99.90;;;;;;4148944;28;20584;-87
2022/05/29 03:48:17;;;;;;;6.97;2.60;;;10.90;99.90;;;;;;4165428;28;20196;-87
2022/05/29 03:50:20;;;;;;;6.07;2.40;;;10.90;99.90;;;;;;4149363;28;20173;-87
2022/05/29 03:52:20;;;;;;;8.13;2.23;;;10.90;99.90;;;;;;4165517;28;20188;-88
2022/05/29 03:54:21;;;;;;;7.65;2.20;;;11.00;99.90;;;;;;4165294;28;20648;-88
2022/05/29 03:56:22;;;;;;;7.70;2.60;;;11.00;99.90;;;;;;4148887;28;20259;-88
2022/05/29 03:58:22;;;;;;;4.40;2.00;;;11.00;99.90;;;;;;4148782;28;20219;-88
2022/05/29 04:00:24;;;;;;;6.63;2.30;;;10.90;99.90;;;;;;4149000;28;20180;-88
2022/05/29 04:02:25;;;;;;;6.40;2.20;;;11.00;99.90;;;;;;4148905;28;20176;-88
2022/05/29 04:04:26;;;;;;;8.10;2.50;;;11.00;99.90;;;;;;4165126;28;20200;-88
2022/05/29 04:06:28;;;;;;;6.77;2.60;;;11.10;99.90;;;;;;4148565;28;20176;-88
2022/05/29 04:13:26;;;;;;;9.95;2.30;;;11.10;99.90;;;;;;4115457;28;20677;-88
2022/05/29 04:15:27;;;;;;;9.30;2.30;;;11.20;99.90;;;;;;4134888;28;20279;-87
2022/05/29 04:17:28;;;;;;;7.83;1.80;;;11.20;99.90;;;;;;4165857;28;20199;-88
2022/05/29 04:19:28;;;;;;;4.87;2.07;;;11.30;99.90;;;;;;4148625;28;20168;-89
2022/05/29 04:21:29;;;;;;;10.00;2.33;;;11.30;99.90;;;;;;4164856;28;20529;-87
2022/05/29 04:23:30;;;;;;;11.95;2.72;;;11.50;99.90;;;;;;4164812;28;20540;-88
2022/05/29 04:25:30;;;;;;;6.13;2.03;;;11.50;99.90;;;;;;4164967;28;20210;-88
2022/05/29 04:27:31;;;;;;;10.73;2.50;;;11.40;99.90;;;;;;4164782;28;20192;-88
2022/05/29 04:29:32;;;;;;;5.43;2.60;;;11.40;99.90;;;;;;4164429;28;20195;-88
2022/05/29 04:31:33;;;;;;;7.00;2.20;;;11.30;99.90;;;;;;4148047;28;20216;-89
2022/05/29 04:33:34;;;;;;;7.63;2.27;;;11.20;99.90;;;;;;4165668;28;20200;-87
2022/05/29 04:35:43;;;;;;;9.80;2.50;;;11.10;99.90;;;;;;4164240;28;20160;-88
2022/05/29 04:37:44;;;;;;;12.67;2.63;;;11.10;99.90;;;;;;4164521;28;20203;-87
2022/05/29 04:39:44;;;;;;;8.03;2.43;;;11.20;99.90;;;;;;4165794;28;20202;-88
2022/05/29 04:41:45;;;;;;;4.90;1.83;;;11.00;99.90;;;;;;4148434;28;20184;-88
2022/05/29 04:43:46;;;;;;;5.40;2.10;;;11.10;99.90;;;;;;4148299;28;20231;-88
2022/05/29 04:45:51;;;;;;;11.15;2.47;;;11.20;99.90;;;;;;4164805;28;20718;-88
2022/05/29 04:47:51;;;;;;;6.87;2.63;;;11.30;99.90;;;;;;4148402;28;20283;-88
2022/05/29 04:49:52;;;;;;;6.47;1.92;;;11.40;99.90;;;;;;4164605;28;20226;-88
2022/05/29 04:51:53;;;;;;;8.05;2.55;;;11.60;99.90;;;;;;4164755;28;20187;-88
2022/05/29 04:53:54;;;;;;;7.15;2.38;;;11.60;99.90;;;;;;4148507;28;20175;-88
2022/05/29 04:55:56;;;;;;;9.03;2.17;;;11.70;99.90;;;;;;4164634;28;20172;-89
2022/05/29 04:57:57;;;;;;;8.23;2.25;;;11.70;99.90;;;;;;4164209;28;20678;-87
2022/05/29 04:59:57;;;;;;;6.20;1.80;;;11.80;99.90;;;;;;4164502;28;20203;-87
2022/05/29 05:01:59;;;;;;;7.60;2.47;;;11.90;99.90;;;;;;4164640;28;20242;-89
2022/05/29 05:04:00;;;;;;;5.70;1.85;;;12.10;99.90;;;;;;4164596;28;20529;-88
2022/05/29 05:06:01;;;;;;;6.15;1.67;;;12.30;99.90;;;;;;4148231;28;20187;-89
2022/05/29 05:08:02;;;;;;;6.90;2.17;;;12.50;99.90;;;;;;4164577;28;20199;-88
2022/05/29 05:10:05;;;;;;;7.93;2.10;;;12.50;99.90;;;;;;4164443;28;20179;-89
2022/05/29 05:12:06;;;;;;;10.93;2.00;;;12.60;99.90;;;;;;4164509;28;20165;-87
2022/05/29 05:14:07;;;;;;;15.60;2.03;;;12.70;99.90;;;;;;4148106;28;20267;-88
2022/05/29 05:16:08;;;;;;;8.40;2.25;;;12.80;99.90;;;;;;4164451;28;20179;-89
2022/05/29 05:18:08;;;;;;;11.93;1.90;;;13.10;99.90;;;;;;4148021;28;20197;-87
2022/05/29 05:20:10;;;;;;;11.00;2.28;;;13.00;99.90;;;;;;4164225;28;20664;-89
2022/05/29 05:22:12;;;;;;;12.20;2.38;;;13.00;99.90;;;;;;4163878;28;20192;-88
2022/05/29 05:24:13;;;;;;;7.15;1.83;;;13.10;99.90;;;;;;4147647;28;20201;-89
2022/05/29 05:26:15;;;;;;;5.55;2.20;;;13.30;99.90;;;;;;4149774;28;20227;-88
2022/05/29 05:28:16;;;;;;;7.28;2.00;;;13.30;99.90;;;;;;4150956;28;20275;-88
2022/05/29 05:30:17;;;;;;;8.95;1.98;;;13.30;99.90;;;;;;4167468;28;20172;-87
2022/05/29 05:32:18;;;;;;;8.48;1.95;;;13.30;99.90;;;;;;4151046;28;20173;-87
2022/05/29 05:34:18;;;;;;;8.63;2.45;;;13.50;99.90;;;;;;4151085;28;20183;-88
2022/05/29 05:36:20;;;;;;;9.65;2.08;;;13.30;99.90;;;;;;4151105;28;20168;-88
2022/05/29 05:38:20;;;;;;;12.23;2.63;;;13.30;99.90;;;;;;4151196;28;20196;-87
2022/05/29 05:40:22;;;;;;;5.22;2.30;;;13.10;99.90;;;;;;4167502;28;20227;-87
2022/05/29 05:42:22;;;;;;;5.68;2.20;;;13.20;99.90;;;;;;4167375;28;20641;-87
2022/05/29 05:44:23;;;;;;;7.57;2.60;;;12.80;99.90;;;;;;4167076;28;20208;-87
2022/05/29 05:46:24;;;;;;;9.05;2.08;;;12.70;99.90;;;;;;4150880;28;20230;-89
2022/05/29 05:48:29;;;;;;;6.40;1.75;;;12.80;99.90;;;;;;4150967;28;20322;-87
2022/05/29 05:50:31;;;;;;;5.50;2.00;;;12.80;99.90;;;;;;4151309;28;20733;-88
2022/05/29 05:52:32;;;;;;;8.73;2.15;;;12.60;99.90;;;;;;4167464;28;20180;-87
2022/05/29 05:54:34;;;;;;;4.78;1.88;;;12.50;99.90;;;;;;4167531;28;20553;-87
2022/05/29 05:56:34;;;;;;;8.25;2.03;;;12.40;99.90;;;;;;4151014;28;20189;-86
2022/05/29 05:58:35;;;;;;;5.28;2.20;;;12.40;99.90;;;;;;4167141;28;20210;-87
2022/05/29 06:00:36;;;;;;;9.52;2.20;;;12.50;99.90;;;;;;4167217;28;20187;-86
2022/05/29 06:02:39;;;;;;;5.93;2.05;;;12.30;99.90;;;;;;4167295;28;20566;-87
2022/05/29 06:04:41;;;;;;;8.45;1.92;;;12.40;99.90;;;;;;4150834;28;20668;-86
2022/05/29 06:06:42;;;;;;;4.57;1.70;;;12.20;99.90;;;;;;4167214;28;20179;-87
2022/05/29 06:08:43;;;;;;;7.55;1.77;;;12.10;99.90;;;;;;4167227;28;20200;-86
2022/05/29 06:10:43;;;;;;;10.38;2.35;;;12.40;99.90;;;;;;4151002;28;20177;-88
2022/05/29 06:12:44;;;;;;;6.30;1.50;;;12.30;99.90;;;;;;4167126;28;20196;-89
2022/05/29 06:14:45;;;;;;;9.93;1.50;;;12.30;99.90;;;;;;4167011;28;20180;-87
2022/05/29 06:16:46;;;;;;;4.38;1.65;;;12.40;99.90;;;;;;4166952;28;20220;-87
2022/05/29 06:18:47;;;;;;;5.95;1.90;;;12.40;99.90;;;;;;4166806;28;20233;-87
2022/05/29 06:20:56;;;;;;;7.22;1.38;;;12.20;99.90;;;;;;4150463;28;20181;-86
2022/05/29 06:22:57;;;;;;;5.35;1.38;;;12.20;99.90;;;;;;4166725;28;20171;-88
2022/05/29 06:24:59;;;;;;;5.25;1.33;;;12.20;99.90;;;;;;4150433;28;20220;-89
2022/05/29 06:27:00;;;;;;;7.18;1.80;;;12.30;99.90;;;;;;4166550;28;20202;-88
2022/05/29 06:29:01;;;;;;;9.02;1.73;;;12.40;99.90;;;;;;4166511;28;20172;-86
2022/05/29 06:31:05;;;;;;;7.68;1.42;;;12.50;99.90;;;;;;4166614;28;20183;-88
2022/05/29 06:33:06;;;;;;;5.88;1.60;;;12.40;99.90;;;;;;4166347;28;20176;-87
2022/05/29 06:35:10;;;;;;;7.68;1.25;;;12.20;99.90;;;;;;4150195;28;20542;-86
2022/05/29 06:37:11;;;;;;;4.72;1.25;;;12.40;99.90;;;;;;4149158;28;20200;-87
2022/05/29 06:39:12;;;;;;;4.13;1.20;;;12.50;99.90;;;;;;4166436;28;20540;-86
2022/05/29 06:41:14;;;;;;;4.10;1.52;;;12.60;99.90;;;;;;4166738;28;20172;-87
2022/05/29 06:43:16;;;;;;;9.30;1.40;;;12.50;99.90;;;;;;4166687;28;20176;-87
2022/05/29 06:45:17;;;;;;;8.55;1.40;;;12.50;99.90;;;;;;4150254;28;20209;-87
2022/05/29 06:47:18;;;;;;;6.65;1.33;;;12.60;99.90;;;;;;4150237;28;20195;-88
2022/05/29 06:49:20;;;;;;;7.93;1.52;;;12.80;99.90;;;;;;4166527;28;20176;-88
2022/05/29 06:51:22;;;;;;;6.75;1.73;;;13.00;99.90;;;;;;4166368;28;20624;-87
2022/05/29 06:53:22;;;;;;;20.48;1.70;;;13.20;99.90;;;;;;4166421;28;20215;-86
2022/05/29 06:55:23;;;;;;;5.35;1.45;;;13.50;99.90;;;;;;4166559;28;20184;-89
2022/05/29 06:57:36;;;;;;;5.18;1.30;;;13.60;99.90;;;;;;4166483;28;20188;-88
2022/05/29 07:06:59;;;;;;;5.95;1.25;;;14.20;99.90;;;;;;4122870;28;20215;-87
2022/05/29 07:08:59;;;;;;;7.95;1.38;;;14.10;99.90;;;;;;4166181;28;20176;-87
2022/05/29 07:11:09;;;;;;;6.45;1.10;;;14.70;99.90;;;;;;4166040;28;20187;-88
2022/05/29 07:13:11;;;;;;;4.88;1.10;;;15.80;99.90;;;;;;4166076;28;20172;-88
2022/05/29 07:15:11;;;;;;;4.75;1.00;;;16.20;99.90;;;;;;4149931;28;20255;-89
2022/05/29 07:17:12;;;;;;;8.57;1.30;;;17.20;99.90;;;;;;4149730;28;20193;-87
2022/05/29 07:19:14;;;;;;;7.07;1.15;;;17.80;99.90;;;;;;4149824;28;20169;-87
2022/05/29 07:21:14;;;;;;;10.27;1.30;;;17.70;99.90;;;;;;4166723;28;20271;-85
2022/05/29 07:23:15;;;;;;;2.53;0.75;;;18.10;99.90;;;;;;4150098;28;20176;-86
2022/05/29 07:25:16;;;;;;;6.03;0.82;;;18.80;99.90;;;;;;4175059;28;20200;-86
2022/05/29 07:27:17;;;;;;;9.07;1.10;;;18.50;99.90;;;;;;4177891;28;20272;-88
2022/05/29 07:29:18;;;;;;;4.90;1.30;;;18.00;99.90;;;;;;4165923;28;20172;-86
2022/05/29 07:31:19;;;;;;;9.85;1.27;;;16.90;99.90;;;;;;4165612;28;20214;-88
2022/05/29 07:33:20;;;;;;;5.53;1.10;;;16.40;99.90;;;;;;4149467;28;20254;-87
2022/05/29 07:35:20;;;;;;;6.50;1.33;;;16.00;99.90;;;;;;4165589;28;20179;-87
2022/05/29 07:37:21;;;;;;;4.47;0.90;;;15.40;99.90;;;;;;4165573;28;20196;-87
2022/05/29 07:39:22;;;;;;;4.90;1.05;;;15.30;99.90;;;;;;4165912;28;20164;-87
2022/05/29 07:43:41;;;;;;;3.53;0.90;;;15.80;99.90;;;;;;4165495;28;20268;-86
2022/05/29 07:45:42;;;;;;;5.07;1.15;;;15.80;99.90;;;;;;4165509;28;20354;-87
2022/05/29 07:47:44;;;;;;;4.38;0.98;;;15.60;99.90;;;;;;4149362;28;20196;-87
2022/05/29 07:49:44;;;;;;;7.35;1.17;;;15.40;99.90;;;;;;4165518;28;20172;-86
2022/05/29 07:51:45;;;;;;;6.80;1.25;;;14.80;99.90;;;;;;4149269;28;20691;-87
2022/05/29 07:53:46;;;;;;;8.13;1.30;;;14.60;99.90;;;;;;4165330;28;20169;-85
2022/05/29 07:55:47;;;;;;;8.27;0.90;;;14.60;99.90;;;;;;4165606;28;20184;-87
2022/05/29 07:57:48;;;;;;;3.22;0.60;;;14.60;99.90;;;;;;4165549;28;20192;-86
2022/05/29 07:59:48;;;;;;;2.70;0.70;;;14.40;99.90;;;;;;4148943;28;20254;-86
2022/05/29 08:01:49;;;;;;;4.00;0.63;;;14.40;99.90;;;;;;4149077;28;20546;-87
2022/05/29 08:03:50;;;;;;;8.25;1.05;;;14.30;99.90;;;;;;4165316;28;20172;-86
2022/05/29 08:05:51;;;;;;;4.23;1.13;;;14.20;99.90;;;;;;4149043;28;20310;-87
2022/05/29 08:07:52;;;;;;;3.95;0.70;;;14.20;99.90;;;;;;4148789;28;20197;-87
2022/05/29 08:09:53;;;;;;;6.38;0.80;;;14.20;99.90;;;;;;4149193;28;20592;-86
2022/05/29 08:11:54;;;;;;;4.05;0.75;;;14.30;99.90;;;;;;4165335;28;20233;-86
2022/05/29 08:13:54;;;;;;;5.10;1.20;;;14.40;99.90;;;;;;4149033;28;20589;-87
2022/05/29 08:15:56;;;;;;;8.02;0.93;;;14.70;99.90;;;;;;4148719;28;20200;-86
2022/05/29 08:17:56;;;;;;;3.58;0.65;;;14.80;99.90;;;;;;4164857;28;20655;-86
2022/05/29 08:19:57;;;;;;;8.20;1.45;;;14.60;99.90;;;;;;4148657;28;20176;-86
2022/05/29 08:21:58;;;;;;;6.35;1.02;;;14.50;99.90;;;;;;4165162;28;20575;-86
2022/05/29 08:30:58;;;;;;;6.93;1.15;;;13.00;99.90;;;;;;4165108;28;20176;-88
2022/05/29 08:32:58;;;;;;;4.00;0.80;;;12.90;99.90;;;;;;4164940;28;20260;-89
2022/05/29 08:35:00;;;;;;;2.43;0.80;;;12.70;99.90;;;;;;4148590;28;20165;-88
2022/05/29 08:37:01;;;;;;;1.43;0.60;;;12.70;99.90;;;;;;4148714;28;20288;-88
2022/05/29 08:39:01;;;;;;;1.47;0.63;;;12.80;99.90;;;;;;4165071;28;20176;-88
2022/05/29 08:41:25;;;;;;;4.40;0.80;;;12.70;99.90;;;;;;4164921;28;20190;-89
2022/05/29 08:43:33;;;;;;;1.83;0.60;;;12.40;99.90;;;;;;4134620;28;20211;-89
2022/05/29 08:45:34;;;;;;;3.03;0.67;;;12.70;99.90;;;;;;4148607;28;20306;-89
2022/05/29 08:47:36;;;;;;;4.23;0.60;;;12.70;99.90;;;;;;4164844;28;20196;-91
2022/05/29 08:49:55;;;;;;;2.63;0.57;;;12.80;99.90;;;;;;4165059;28;20172;-90
2022/05/29 08:52:40;;;;;;;5.25;0.77;;;12.90;99.90;;;;;;4164702;28;20180;-90
2022/05/29 08:54:43;;;;;;;2.42;0.50;;;13.30;99.90;;;;;;4164761;28;20176;-90
2022/05/29 08:57:08;;;;;;;3.90;0.63;;;14.00;99.90;;;;;;4164667;28;20204;-90
2022/05/29 08:59:29;;;;;;;3.80;0.50;;;14.60;99.90;;;;;;4164910;28;20663;-90
2022/05/29 09:01:47;;;;;;;2.15;0.73;;;15.90;99.90;;;;;;4164170;28;20168;-90
2022/05/29 09:03:58;;;;;;;3.67;0.63;;;17.90;99.90;;;;;;4164838;28;20530;-89
2022/05/29 09:05:59;;;;;;;1.38;0.50;;;19.50;99.90;;;;;;4164913;28;20199;-89
2022/05/29 09:08:06;;;;;;;1.67;0.30;;;18.90;99.90;;;;;;4164638;28;20193;-93
2022/05/29 09:10:20;;;;;;;3.50;0.50;;;19.80;99.90;;;;;;4164918;28;20179;-94
2022/05/29 09:12:39;;;;;;;1.75;0.40;;;21.00;99.90;;;;;;4164957;28;20187;-90
2022/05/29 09:14:54;;;;;;;2.78;0.85;;;22.00;99.90;;;;;;4164738;28;20611;-90
2022/05/29 09:17:02;;;;;;;3.28;0.60;;;22.80;99.90;;;;;;4164615;28;20200;-90
2022/05/29 09:19:22;;;;;;;3.55;1.00;;;22.60;99.90;;;;;;4164795;28;20163;-90
2022/05/29 09:21:29;;;;;;;1.38;0.60;;;23.50;99.90;;;;;;4164369;28;20198;-89
2022/05/29 09:23:38;;;;;;;3.00;0.70;;;23.70;99.90;;;;;;4164223;28;20164;-88
2022/05/29 09:25:44;;;;;;;1.85;0.60;;;23.60;99.90;;;;;;4164525;28;20216;-88
2022/05/29 09:27:49;;;;;;;1.85;0.65;;;23.10;99.90;;;;;;4164493;28;20198;-86
2022/05/29 09:29:52;;;;;;;0.50;0.20;;;21.60;99.90;;;;;;4164713;28;20187;-86
2022/05/29 09:31:52;;;;;;;1.90;0.40;;;20.40;99.90;;;;;;4164415;28;20173;-87
2022/05/29 09:33:54;;;;;;;1.58;0.30;;;19.70;99.90;;;;;;4180753;28;20183;-88
2022/05/29 09:36:31;;;;;;;2.13;0.35;;;19.30;99.90;;;;;;4164576;28;20172;-88
2022/05/29 09:38:36;;;;;;;0.70;0.38;;;19.40;99.90;;;;;;4164261;28;20217;-87
2022/05/29 09:40:56;;;;;;;2.80;0.40;;;19.60;99.90;;;;;;4164435;28;20236;-88
2022/05/29 09:42:57;;;;;;;2.35;0.32;;;20.00;99.90;;;;;;4164401;28;20180;-86
2022/05/29 09:45:20;;;;;;;1.40;0.30;;;20.50;99.90;;;;;;4180872;28;20683;-88
2022/05/29 09:50:07;;;;;;;1.27;0.40;;;19.50;99.90;;;;;;4180863;28;20178;-89
2022/05/29 09:52:31;;;;;;;2.95;0.47;;;18.30;99.90;;;;;;4180682;28;20176;-89
2022/05/29 09:54:51;;;;;;;4.43;0.60;;;17.30;99.90;;;;;;4167995;28;20529;-88
2022/05/29 09:56:52;;;;;;;2.40;0.40;;;16.80;99.90;;;;;;4169401;28;20676;-88
2022/05/29 09:58:57;;;;;;;0.47;0.30;;;16.50;99.90;;;;;;4163983;28;20183;-88
2022/05/29 10:01:01;;;;;;;1.13;0.28;;;16.70;99.90;;;;;;4146907;28;20177;-89
2022/05/29 10:03:08;;;;;;;1.98;0.30;;;17.40;99.90;;;;;;4146648;28;20169;-90
2022/05/29 10:05:25;;;;;;;2.45;0.65;;;18.30;99.90;;;;;;4163130;28;20223;-89
2022/05/29 10:07:42;;;;;;;2.42;1.05;;;19.00;99.90;;;;;;4162842;28;20188;-88
2022/05/29 10:10:05;;;;;;;5.18;1.33;;;19.30;99.90;;;;;;4162989;28;20271;-88
2022/05/29 10:12:18;;;;;;;2.05;0.57;;;19.00;99.90;;;;;;4147093;28;20169;-89
2022/05/29 10:14:21;;;;;;;2.13;0.90;;;18.90;99.90;;;;;;4166468;28;20710;-88
2022/05/29 10:16:31;;;;;;;4.95;0.90;;;18.70;99.90;;;;;;4182314;28;20168;-88
2022/05/29 10:18:38;;;;;;;2.20;0.32;;;18.10;99.90;;;;;;4165858;28;20206;-87
2022/05/29 10:20:44;;;;;;;1.38;0.30;;;17.50;99.90;;;;;;4165832;28;20180;-87
2022/05/29 10:22:45;;;;;;;4.28;0.63;;;16.80;99.90;;;;;;4166134;28;20192;-85
2022/05/29 10:24:47;;;;;;;2.67;0.40;;;15.20;99.90;;;;;;4149242;28;20287;-88
2022/05/29 10:26:51;;;;;;;1.02;0.50;;;13.90;99.90;;;;;;4165471;28;20212;-88
2022/05/29 10:28:52;;;;;;;0.60;0.20;;;13.10;99.90;;;;;;4165809;28;20207;-89
2022/05/29 10:31:07;;;;;;;1.95;0.40;;;12.90;99.90;;;;;;4165434;28;20270;-88
2022/05/29 10:33:26;;;;;;;0.60;0.30;;;12.90;99.90;;;;;;4165575;28;20250;-89
2022/05/29 10:35:30;;;;;;;0.13;0.10;;;13.10;99.90;;;;;;4165554;28;20172;-88
2022/05/29 10:37:41;;;;;;;1.02;0.40;;;13.40;99.90;;;;;;4165486;28;20198;-88
2022/05/29 10:39:41;;;;;;;7.15;1.30;;;13.90;99.90;;;;;;4149602;28;20679;-89
2022/05/29 10:41:43;;;;;;;4.65;0.50;;;14.20;99.90;;;;;;4166671;28;20204;-90
2022/05/29 10:43:50;;;;;;;1.83;0.43;;;14.20;99.90;;;;;;4166434;28;20195;-90
2022/05/29 10:45:51;;;;;;;0.85;0.45;;;14.30;99.90;;;;;;4166516;28;20763;-90
2022/05/29 10:48:08;;;;;;;1.60;0.43;;;14.50;99.90;;;;;;4149895;28;20193;-89
2022/05/29 10:50:21;;;;;;;4.38;0.60;;;14.80;99.90;;;;;;4149868;28;20270;-90
2022/05/29 10:52:38;;;;;;;5.82;1.38;;;15.20;99.90;;;;;;4166487;28;20557;-90
2022/05/29 10:54:51;;;;;;;4.63;1.30;;;15.90;99.90;;;;;;4166524;28;20254;-89
2022/05/29 10:57:04;;;;;;;1.63;0.47;;;16.30;99.90;;;;;;4166333;28;20200;-91
2022/05/29 10:59:07;;;;;;;4.18;0.43;;;15.90;99.90;;;;;;4166273;28;20183;-89
2022/05/29 11:04:26;;;;;;;0.93;0.50;;;15.60;99.90;;;;;;4133137;28;20188;-89
2022/05/29 11:06:58;;;;;;;3.50;0.80;;;15.10;99.90;;;;;;4166029;28;20219;-89
2022/05/29 11:09:20;;;;;;;3.33;0.63;;;14.90;99.90;;;;;;4166413;28;20180;-93
2022/05/29 11:11:34;;;;;;;4.82;0.70;;;14.50;99.90;;;;;;4167930;28;20180;-91
2022/05/29 11:14:09;;;;;;;6.57;0.60;;;14.10;99.90;;;;;;4151081;28;20266;-87
2022/05/29 11:16:21;;;;;;;1.30;0.60;;;13.90;99.90;;;;;;4166671;28;20679;-86
2022/05/29 11:18:30;;;;;;;2.83;0.80;;;13.20;99.90;;;;;;4167051;28;20234;-92
2022/05/29 11:20:55;;;;;;;4.53;1.20;;;12.50;99.90;;;;;;4167573;28;20187;-88
2022/05/29 11:23:16;;;;;;;2.33;1.10;;;12.00;99.90;;;;;;4168467;28;20277;-90
2022/05/29 11:25:27;;;;;;;3.53;0.90;;;11.70;99.90;;;;;;4168794;28;20211;-88
2022/05/29 11:27:51;;;;;;;2.33;0.83;;;11.60;99.90;;;;;;4166759;28;20196;-89
2022/05/29 11:30:08;;;;;;;2.10;0.83;;;11.50;99.90;;;;;;4152503;28;20179;-90